createdAt,value
2019-04-20T00:00:06.226Z,1.30
2019-04-20T00:02:33.696Z,1.62
2019-04-20T00:05:03.316Z,1.80
2019-04-20T00:07:34.729Z,1.32
2019-04-20T00:10:08.505Z,1.70
2019-04-20T00:12:43.292Z,1.90
2019-04-20T00:15:02.870Z,1.80
2019-04-20T00:17:32.650Z,1.45
2019-04-20T00:20:09.248Z,1.90
2019-04-20T00:22:47.047Z,1.62
2019-04-20T00:25:45.830Z,1.40
2019-04-20T00:28:24.663Z,1.57
2019-04-20T00:30:53.348Z,1.60
2019-04-20T00:33:14.899Z,1.80
2019-04-20T00:35:34.409Z,2.00
2019-04-20T00:38:03.366Z,1.75
2019-04-20T00:40:32.661Z,1.67
2019-04-20T00:43:01.925Z,1.55
2019-04-20T00:45:34.751Z,1.72
2019-04-20T00:48:08.120Z,1.52
2019-04-20T00:50:44.457Z,1.70
2019-04-20T00:53:10.322Z,1.77
2019-04-20T00:55:31.791Z,1.70
2019-04-20T00:58:15.327Z,1.32
2019-04-20T01:00:54.274Z,1.55
2019-04-20T01:03:15.728Z,1.57
2019-04-20T01:05:59.738Z,1.60
2019-04-20T01:08:19.118Z,1.90
2019-04-20T01:10:51.474Z,1.80
2019-04-20T01:13:20.924Z,1.85
2019-04-20T01:15:55.454Z,1.50
2019-04-20T01:18:17.900Z,1.70
2019-04-20T01:20:47.264Z,1.80
2019-04-20T01:23:19.643Z,1.65
2019-04-20T01:25:48.287Z,1.77
2019-04-20T01:28:35.469Z,1.80
2019-04-20T01:30:59.971Z,1.65
2019-04-20T01:33:27.875Z,1.70
2019-04-20T01:36:00.636Z,1.60
2019-04-20T01:38:30.471Z,1.67
2019-04-20T01:40:46.449Z,1.80
2019-04-20T01:43:16.237Z,2.00
2019-04-20T01:45:46.050Z,1.90
2019-04-20T01:48:22.921Z,1.92
2019-04-20T01:50:57.476Z,2.02
2019-04-20T01:53:29.231Z,1.57
2019-04-20T01:56:05.505Z,2.08
2019-04-20T01:58:43.247Z,1.87
2019-04-20T02:00:51.563Z,1.50
2019-04-20T02:03:41.041Z,1.87
2019-04-20T02:06:28.486Z,1.85
2019-04-20T02:08:59.147Z,1.90
2019-04-20T02:11:33.954Z,2.08
2019-04-20T02:14:00.420Z,1.95
2019-04-20T02:16:34.987Z,2.02
2019-04-20T02:19:13.606Z,1.92
2019-04-20T02:21:45.389Z,1.77
2019-04-20T02:24:00.587Z,1.95
2019-04-20T02:26:26.065Z,1.60
2019-04-20T02:29:18.585Z,1.75
2019-04-20T02:32:06.444Z,1.85
2019-04-20T02:34:40.262Z,2.08
2019-04-20T02:37:26.743Z,1.80
2019-04-20T02:39:55.915Z,2.10
2019-04-20T02:42:24.801Z,2.20
2019-04-20T02:45:05.102Z,1.92
2019-04-20T02:47:27.995Z,2.40
2019-04-20T02:49:50.771Z,2.00
2019-04-20T02:52:24.910Z,1.77
2019-04-20T02:54:54.938Z,1.80
2019-04-20T02:57:17.898Z,1.98
2019-04-20T03:02:06.369Z,2.77
2019-04-20T03:04:29.016Z,2.37
2019-04-20T03:07:04.210Z,2.17
2019-04-20T03:09:54.311Z,2.10
2019-04-20T03:12:18.665Z,2.40
2019-04-20T03:14:39.268Z,1.93
2019-04-20T03:17:18.662Z,2.00
2019-04-20T03:19:37.679Z,2.42
2019-04-20T03:22:13.653Z,2.20
2019-04-20T03:27:10.839Z,2.30
2019-04-20T03:29:47.010Z,2.27
2019-04-20T03:32:50.204Z,2.40
2019-04-20T03:37:25.076Z,2.53
2019-04-20T03:39:42.984Z,2.67
2019-04-20T03:41:58.651Z,2.07
2019-04-20T03:44:30.919Z,2.20
2019-04-20T03:47:01.230Z,2.73
2019-04-20T03:49:48.218Z,2.70
2019-04-20T03:52:28.752Z,2.37
2019-04-20T03:54:54.205Z,2.60
2019-04-20T03:57:45.912Z,2.37
2019-04-20T04:00:21.791Z,3.10
2019-04-20T04:03:16.589Z,2.58
2019-04-20T04:05:46.119Z,2.73
2019-04-20T04:08:07.511Z,2.47
2019-04-20T04:10:41.255Z,2.43
2019-04-20T04:13:11.904Z,2.60
2019-04-20T04:15:47.850Z,2.70
2019-04-20T04:18:17.858Z,2.37
2019-04-20T04:20:49.208Z,2.75
2019-04-20T04:23:32.716Z,2.90
2019-04-20T04:26:00.795Z,2.50
2019-04-20T04:28:29.961Z,2.63
2019-04-20T04:31:05.124Z,2.60
2019-04-20T04:35:59.189Z,2.67
2019-04-20T04:38:36.279Z,2.67
2019-04-20T04:41:09.916Z,2.53
2019-04-20T04:43:35.957Z,2.60
2019-04-20T04:45:40.920Z,2.93
2019-04-20T04:48:14.709Z,3.00
2019-04-20T04:50:47.487Z,2.70
2019-04-20T04:53:20.662Z,2.77
2019-04-20T04:55:50.070Z,2.80
2019-04-20T04:58:09.013Z,2.53
2019-04-20T05:00:38.842Z,2.67
2019-04-20T05:03:31.076Z,2.37
2019-04-20T05:06:03.535Z,2.10
2019-04-20T05:08:18.955Z,2.47
2019-04-20T05:10:41.545Z,2.70
2019-04-20T05:13:11.234Z,2.60
2019-04-20T05:15:55.298Z,3.20
2019-04-20T05:18:35.751Z,3.02
2019-04-20T05:20:58.886Z,3.00
2019-04-20T05:23:26.949Z,2.83
2019-04-20T05:26:11.639Z,3.15
2019-04-20T05:28:33.672Z,3.42
2019-04-20T05:30:58.215Z,3.10
2019-04-20T05:33:34.361Z,3.42
2019-04-20T05:36:11.746Z,3.67
2019-04-20T05:38:49.538Z,3.85
2019-04-20T05:41:15.477Z,3.08
2019-04-20T05:43:56.576Z,3.33
2019-04-20T05:46:45.893Z,3.98
2019-04-20T05:49:03.299Z,3.50
2019-04-20T05:51:35.840Z,3.60
2019-04-20T05:54:02.815Z,3.65
2019-04-20T05:56:35.335Z,3.93
2019-04-20T05:58:59.607Z,4.08
2019-04-20T06:01:31.791Z,4.60
2019-04-20T06:03:58.105Z,4.20
2019-04-20T06:06:33.161Z,4.08
2019-04-20T06:09:08.769Z,4.17
2019-04-20T06:11:33.067Z,3.50
2019-04-20T06:13:52.419Z,3.52
2019-04-20T06:16:40.883Z,3.02
2019-04-20T06:19:18.837Z,2.83
2019-04-20T06:21:43.960Z,3.30
2019-04-20T06:24:35.365Z,2.58
2019-04-20T06:27:11.464Z,2.80
2019-04-20T06:29:22.125Z,2.62
2019-04-20T06:31:59.206Z,3.00
2019-04-20T06:36:57.327Z,2.80
2019-04-20T06:39:30.851Z,3.62
2019-04-20T06:42:14.102Z,3.37
2019-04-20T06:44:32.028Z,3.30
2019-04-20T06:47:15.709Z,3.58
2019-04-20T06:52:11.183Z,3.05
2019-04-20T06:54:41.896Z,2.90
2019-04-20T06:57:10.193Z,3.35
2019-04-20T06:59:43.422Z,2.77
2019-04-20T07:02:21.859Z,3.50
2019-04-20T07:04:57.961Z,3.10
2019-04-20T07:07:17.089Z,3.15
2019-04-20T07:09:55.671Z,3.03
2019-04-20T07:12:12.504Z,3.52
2019-04-20T07:14:34.437Z,3.60
2019-04-20T07:17:32.976Z,4.37
2019-04-20T07:19:50.410Z,4.22
2019-04-20T07:22:29.797Z,4.65
2019-04-20T07:27:25.153Z,3.57
2019-04-20T07:32:15.334Z,4.50
2019-04-20T07:34:54.021Z,4.58
2019-04-20T07:37:52.930Z,4.13
2019-04-20T07:40:01.120Z,3.95
2019-04-20T07:42:28.894Z,3.97
2019-04-20T07:45:01.265Z,3.87
2019-04-20T07:47:37.547Z,3.77
2019-04-20T07:49:56.718Z,3.62
2019-04-20T07:52:06.221Z,3.90
2019-04-20T07:55:14.956Z,3.75
2019-04-20T07:57:25.889Z,4.33
2019-04-20T07:59:57.508Z,5.10
2019-04-20T08:02:39.101Z,4.83
2019-04-20T08:04:55.109Z,4.58
2019-04-20T08:07:14.017Z,4.80
2019-04-20T08:09:49.701Z,3.87
2019-04-20T08:12:51.581Z,4.03
2019-04-20T08:15:24.093Z,4.55
2019-04-20T08:17:52.509Z,5.33
2019-04-20T08:20:15.956Z,7.03
2019-04-20T08:22:47.526Z,4.43
2019-04-20T08:25:08.217Z,7.60
2019-04-20T08:27:25.943Z,5.90
2019-04-20T08:30:12.218Z,4.40
2019-04-20T08:32:50.597Z,3.83
2019-04-20T08:35:28.793Z,4.65
2019-04-20T08:40:29.895Z,5.47
2019-04-20T08:43:02.429Z,3.98
2019-04-20T08:45:32.888Z,4.17
2019-04-20T08:50:41.264Z,3.87
2019-04-20T08:53:08.931Z,4.30
2019-04-20T08:55:23.911Z,4.10
2019-04-20T08:57:37.939Z,3.83
2019-04-20T09:00:09.196Z,3.67
2019-04-20T09:02:41.314Z,3.87
2019-04-20T09:05:26.541Z,3.63
2019-04-20T09:07:53.865Z,3.95
2019-04-20T09:12:54.897Z,3.43
2019-04-20T09:15:10.252Z,4.13
2019-04-20T09:17:50.349Z,4.22
2019-04-20T09:20:22.783Z,4.00
2019-04-20T09:23:02.269Z,4.00
2019-04-20T09:28:11.537Z,3.42
2019-04-20T09:30:42.887Z,3.20
2019-04-20T09:33:44.081Z,3.60
2019-04-20T09:36:17.991Z,3.67
2019-04-20T09:39:00.046Z,3.45
2019-04-20T09:41:42.203Z,3.35
2019-04-20T09:43:52.514Z,3.47
2019-04-20T09:46:22.165Z,3.70
2019-04-20T09:48:57.056Z,3.42
2019-04-20T09:51:40.134Z,3.40
2019-04-20T09:54:02.878Z,3.10
2019-04-20T09:56:35.660Z,3.20
2019-04-20T09:59:09.839Z,3.52
2019-04-20T10:01:31.120Z,3.42
2019-04-20T10:03:50.500Z,3.30
2019-04-20T10:06:23.036Z,2.98
2019-04-20T10:08:53.264Z,3.55
2019-04-20T10:11:19.407Z,3.42
2019-04-20T10:13:48.117Z,3.20
2019-04-20T10:16:17.715Z,3.02
2019-04-20T10:18:50.570Z,3.00
2019-04-20T10:21:16.138Z,3.10
2019-04-20T10:23:44.907Z,2.87
2019-04-20T10:26:14.288Z,3.85
2019-04-20T10:28:43.625Z,3.08
2019-04-20T10:31:12.786Z,3.50
2019-04-20T10:33:41.737Z,3.65
2019-04-20T10:36:12.035Z,3.25
2019-04-20T10:38:40.469Z,3.30
2019-04-20T10:41:15.397Z,3.35
2019-04-20T10:43:38.830Z,3.52
2019-04-20T10:46:07.094Z,3.90
2019-04-20T10:48:41.282Z,3.30
2019-04-20T10:51:05.337Z,3.37
2019-04-20T10:53:33.640Z,3.20
2019-04-20T10:56:03.322Z,3.50
2019-04-20T10:58:31.851Z,3.50
2019-04-20T11:01:00.269Z,3.58
2019-04-20T11:03:28.925Z,3.50
2019-04-20T11:05:58.560Z,3.37
2019-04-20T11:08:26.886Z,2.70
2019-04-20T11:11:04.628Z,3.10
2019-04-20T11:13:25.582Z,3.17
2019-04-20T11:15:54.672Z,2.98
2019-04-20T11:18:23.013Z,3.00
2019-04-20T11:20:51.272Z,3.02
2019-04-20T11:23:20.351Z,3.17
2019-04-20T11:25:48.749Z,3.00
2019-04-20T11:28:17.009Z,3.40
2019-04-20T11:30:46.069Z,3.10
2019-04-20T11:33:14.506Z,3.10
2019-04-20T11:35:43.687Z,2.83
2019-04-20T11:38:15.372Z,2.87
2019-04-20T11:40:42.736Z,3.10
2019-04-20T11:43:11.505Z,3.17
2019-04-20T11:45:40.586Z,3.08
2019-04-20T11:48:09.609Z,3.33
2019-04-20T11:50:37.961Z,2.90
2019-04-20T11:53:06.190Z,3.05
2019-04-20T11:55:34.444Z,2.85
2019-04-20T11:58:03.789Z,2.95
2019-04-20T12:00:47.161Z,3.00
2019-04-20T12:03:20.707Z,3.10
2019-04-20T12:05:45.853Z,3.40
2019-04-20T12:08:11.070Z,2.85
2019-04-20T12:10:43.796Z,2.87
2019-04-20T12:13:10.217Z,3.33
2019-04-20T12:15:39.650Z,2.85
2019-04-20T12:18:07.920Z,3.10
2019-04-20T12:20:36.627Z,2.72
2019-04-20T12:23:06.326Z,2.60
2019-04-20T12:25:36.719Z,3.13
2019-04-20T12:28:05.329Z,3.20
2019-04-20T12:30:33.668Z,2.83
2019-04-20T12:33:03.699Z,2.80
2019-04-20T12:35:32.057Z,2.50
2019-04-20T12:38:00.969Z,2.50
2019-04-20T12:40:30.152Z,2.85
2019-04-20T12:42:59.212Z,2.52
2019-04-20T12:45:27.529Z,2.95
2019-04-20T12:47:55.784Z,2.83
2019-04-20T12:50:24.014Z,2.98
2019-04-20T12:52:52.577Z,2.80
2019-04-20T12:55:20.932Z,2.70
2019-04-20T12:57:50.307Z,3.17
2019-04-20T13:00:19.501Z,2.90
2019-04-20T13:02:47.876Z,2.67
2019-04-20T13:05:17.470Z,2.80
2019-04-20T13:07:49.277Z,2.63
2019-04-20T13:10:15.950Z,2.90
2019-04-20T13:12:49.914Z,3.08
2019-04-20T13:15:28.656Z,2.87
2019-04-20T13:17:57.185Z,3.20
2019-04-20T13:20:25.844Z,2.77
2019-04-20T13:22:54.977Z,2.60
2019-04-20T13:25:23.406Z,2.92
2019-04-20T13:27:52.751Z,2.92
2019-04-20T13:30:21.762Z,2.80
2019-04-20T13:32:50.086Z,3.37
2019-04-20T13:35:18.463Z,2.98
2019-04-20T13:37:46.954Z,2.67
2019-04-20T13:40:17.669Z,2.60
2019-04-20T13:42:45.990Z,2.40
2019-04-20T13:45:15.005Z,2.55
2019-04-20T13:47:43.420Z,2.77
2019-04-20T13:50:13.138Z,2.12
2019-04-20T13:52:42.655Z,2.35
2019-04-20T13:55:11.072Z,2.70
2019-04-20T13:57:49.554Z,2.20
2019-04-20T14:00:24.161Z,2.12
2019-04-20T14:02:58.493Z,2.40
2019-04-20T14:05:35.017Z,2.37
2019-04-20T14:08:05.550Z,2.25
2019-04-20T14:10:33.888Z,2.20
2019-04-20T14:13:09.634Z,2.50
2019-04-20T14:15:33.223Z,2.62
2019-04-20T14:18:02.365Z,2.20
2019-04-20T14:20:31.909Z,2.42
2019-04-20T14:23:01.020Z,2.27
2019-04-20T14:25:29.368Z,2.40
2019-04-20T14:27:57.645Z,2.10
2019-04-20T14:30:26.913Z,2.37
2019-04-20T14:32:55.226Z,2.70
2019-04-20T14:35:23.476Z,2.45
2019-04-20T14:37:52.063Z,1.87
2019-04-20T14:40:21.986Z,2.05
2019-04-20T14:42:53.371Z,2.20
2019-04-20T14:45:20.703Z,2.33
2019-04-20T14:47:49.976Z,2.00
2019-04-20T14:50:20.093Z,2.08
2019-04-20T14:52:49.339Z,2.30
2019-04-20T14:55:19.128Z,2.08
2019-04-20T14:57:47.821Z,2.10
2019-04-20T15:00:37.382Z,2.35
2019-04-20T15:03:23.989Z,2.40
2019-04-20T15:05:53.824Z,2.37
2019-04-20T15:08:24.864Z,2.73
2019-04-20T15:10:54.307Z,2.55
2019-04-20T15:13:22.811Z,2.95
2019-04-20T15:15:51.049Z,2.27
2019-04-20T15:18:21.866Z,2.50
2019-04-20T15:20:53.219Z,2.60
2019-04-20T15:23:25.805Z,2.50
2019-04-20T15:25:54.846Z,2.40
2019-04-20T15:28:24.184Z,2.50
2019-04-20T15:30:54.185Z,2.35
2019-04-20T15:33:23.072Z,2.58
2019-04-20T15:35:52.497Z,2.50
2019-04-20T15:38:20.991Z,2.70
2019-04-20T15:40:49.396Z,2.60
2019-04-20T15:43:20.918Z,2.40
2019-04-20T15:45:47.640Z,2.65
2019-04-20T15:48:16.318Z,2.65
2019-04-20T15:50:45.734Z,3.50
2019-04-20T15:53:15.531Z,3.10
2019-04-20T15:55:45.622Z,2.60
2019-04-20T15:58:14.350Z,2.62
2019-04-20T16:00:42.728Z,2.77
2019-04-20T16:03:12.647Z,2.40
2019-04-20T16:05:51.471Z,2.92
2019-04-20T16:08:36.962Z,2.40
2019-04-20T16:11:06.983Z,2.67
2019-04-20T16:13:38.474Z,3.00
2019-04-20T16:16:05.824Z,2.58
2019-04-20T16:18:34.942Z,2.67
2019-04-20T16:21:07.852Z,2.75
2019-04-20T16:23:35.044Z,2.58
2019-04-20T16:26:11.386Z,2.75
2019-04-20T16:28:39.757Z,2.52
2019-04-20T16:31:10.078Z,2.52
2019-04-20T16:33:38.807Z,2.83
2019-04-20T16:36:08.254Z,2.95
2019-04-20T16:38:37.269Z,2.62
2019-04-20T16:41:06.601Z,2.58
2019-04-20T16:43:40.315Z,2.95
2019-04-20T16:46:05.472Z,2.55
2019-04-20T16:48:33.903Z,2.67
2019-04-20T16:51:02.956Z,2.35
2019-04-20T16:53:31.294Z,2.40
2019-04-20T16:56:01.054Z,2.45
2019-04-20T16:58:29.577Z,2.30
2019-04-20T17:00:59.194Z,2.33
2019-04-20T17:03:38.922Z,2.47
2019-04-20T17:05:57.999Z,2.37
2019-04-20T17:08:27.010Z,2.42
2019-04-20T17:10:55.951Z,2.47
2019-04-20T17:13:35.306Z,2.20
2019-04-20T17:15:55.487Z,2.22
2019-04-20T17:18:23.892Z,2.67
2019-04-20T17:20:53.420Z,2.50
2019-04-20T17:23:23.408Z,2.37
2019-04-20T17:25:52.301Z,2.50
2019-04-20T17:28:38.935Z,2.27
2019-04-20T17:31:09.177Z,2.17
2019-04-20T17:33:55.213Z,1.60
2019-04-20T17:36:19.797Z,2.30
2019-04-20T17:38:51.702Z,1.90
2019-04-20T17:41:39.160Z,1.90
2019-04-20T17:44:05.661Z,1.70
2019-04-20T17:46:27.265Z,1.90
2019-04-20T17:49:00.678Z,1.85
2019-04-20T17:51:34.410Z,1.60
2019-04-20T17:53:53.766Z,1.60
2019-04-20T17:56:17.339Z,2.00
2019-04-20T17:58:46.117Z,2.12
2019-04-20T18:01:41.218Z,1.80
2019-04-20T18:04:44.549Z,1.57
2019-04-20T18:06:50.448Z,1.60
2019-04-20T18:09:34.615Z,1.57
2019-04-20T18:11:45.262Z,1.82
2019-04-20T18:14:28.723Z,1.60
2019-04-20T18:16:56.332Z,1.57
2019-04-20T18:19:19.036Z,1.75
2019-04-20T18:21:43.649Z,1.75
2019-04-20T18:24:23.976Z,1.85
2019-04-20T18:27:01.537Z,1.73
2019-04-20T18:29:32.306Z,2.00
2019-04-20T18:31:43.773Z,1.90
2019-04-20T18:34:17.715Z,1.80
2019-04-20T18:36:47.156Z,1.77
2019-04-20T18:39:16.546Z,1.90
2019-04-20T18:41:48.368Z,2.27
2019-04-20T18:44:14.836Z,2.00
2019-04-20T18:47:06.633Z,2.33
2019-04-20T18:49:27.220Z,1.87
2019-04-20T18:51:43.930Z,2.30
2019-04-20T18:54:19.060Z,1.95
2019-04-20T18:56:47.351Z,2.27
2019-04-20T18:59:13.370Z,2.03
2019-04-20T19:01:43.783Z,1.90
2019-04-20T19:04:12.149Z,2.00
2019-04-20T19:06:41.444Z,2.00
2019-04-20T19:09:16.688Z,1.87
2019-04-20T19:11:43.792Z,1.70
2019-04-20T19:14:24.959Z,1.90
2019-04-20T19:17:04.326Z,2.12
2019-04-20T19:19:32.089Z,2.12
2019-04-20T19:21:54.147Z,2.05
2019-04-20T19:24:27.436Z,1.92
2019-04-20T19:27:15.748Z,1.67
2019-04-20T19:29:53.312Z,1.77
2019-04-20T19:32:33.581Z,1.90
2019-04-20T19:34:54.998Z,1.80
2019-04-20T19:37:20.351Z,2.08
2019-04-20T19:39:53.253Z,2.12
2019-04-20T19:42:28.666Z,1.87
2019-04-20T19:44:59.540Z,1.95
2019-04-20T19:47:35.075Z,2.00
2019-04-20T19:49:51.786Z,1.90
2019-04-20T19:52:50.441Z,1.90
2019-04-20T19:55:04.470Z,1.62
2019-04-20T19:57:31.058Z,1.80
2019-04-20T19:59:49.554Z,1.95
2019-04-20T20:02:11.867Z,2.12
2019-04-20T20:04:48.222Z,1.87
2019-04-20T20:07:18.828Z,2.07
2019-04-20T20:09:49.838Z,2.02
2019-04-20T20:12:14.521Z,2.08
2019-04-20T20:14:45.716Z,2.12
2019-04-20T20:17:32.884Z,1.98
2019-04-20T20:20:06.770Z,1.92
2019-04-20T20:22:21.667Z,2.02
2019-04-20T20:24:41.019Z,1.70
2019-04-20T20:27:20.679Z,2.02
2019-04-20T20:29:47.254Z,2.20
2019-04-20T20:32:24.411Z,2.67
2019-04-20T20:34:43.705Z,2.10
2019-04-20T20:37:14.541Z,2.00
2019-04-20T20:39:41.928Z,2.45
2019-04-20T20:42:23.232Z,2.05
2019-04-20T20:44:49.842Z,1.92
2019-04-20T20:47:35.610Z,2.20
2019-04-20T20:50:03.135Z,2.10
2019-04-20T20:52:27.358Z,2.17
2019-04-20T20:54:49.507Z,2.10
2019-04-20T20:57:15.417Z,2.25
2019-04-20T20:59:49.426Z,2.00
2019-04-20T21:02:18.020Z,2.02
2019-04-20T21:04:39.547Z,2.47
2019-04-20T21:07:08.785Z,2.17
2019-04-20T21:09:37.593Z,2.50
2019-04-20T21:12:10.877Z,2.15
2019-04-20T21:14:40.207Z,2.00
2019-04-20T21:17:15.209Z,2.37
2019-04-20T21:19:54.989Z,2.08
2019-04-20T21:22:13.195Z,2.37
2019-04-20T21:24:37.921Z,2.20
2019-04-20T21:27:10.382Z,2.30
2019-04-20T21:29:43.551Z,2.05
2019-04-20T21:32:10.905Z,2.10
2019-04-20T21:34:36.255Z,2.20
2019-04-20T21:37:12.211Z,2.20
2019-04-20T21:39:44.261Z,2.10
2019-04-20T21:42:13.768Z,2.08
2019-04-20T21:44:41.428Z,2.30
2019-04-20T21:47:07.269Z,2.40
2019-04-20T21:49:45.727Z,2.27
2019-04-20T21:52:16.100Z,2.50
2019-04-20T21:54:38.232Z,2.62
2019-04-20T21:57:10.559Z,2.00
2019-04-20T21:59:43.241Z,2.33
2019-04-20T22:02:17.141Z,2.20
2019-04-20T22:04:37.538Z,2.40
2019-04-20T22:07:05.973Z,2.45
2019-04-20T22:09:40.420Z,2.50
2019-04-20T22:12:05.641Z,1.72
2019-04-20T22:14:35.518Z,2.25
2019-04-20T22:17:05.487Z,2.58
2019-04-20T22:19:43.582Z,2.05
2019-04-20T22:22:15.165Z,2.17
2019-04-20T22:24:53.662Z,2.37
2019-04-20T22:27:13.218Z,2.12
2019-04-20T22:29:34.456Z,2.40
2019-04-20T22:32:09.047Z,2.10
2019-04-20T22:34:33.716Z,2.40
2019-04-20T22:37:04.269Z,2.42
2019-04-20T22:39:39.776Z,2.60
2019-04-20T22:42:08.980Z,2.90
2019-04-20T22:44:36.189Z,2.40
2019-04-20T22:47:12.414Z,2.30
2019-04-20T22:49:50.136Z,2.50
2019-04-20T22:52:24.648Z,2.25
2019-04-20T22:54:52.198Z,2.20
2019-04-20T22:57:19.333Z,2.30
2019-04-20T22:59:46.057Z,2.33
2019-04-20T23:02:07.606Z,2.70
2019-04-20T23:04:34.963Z,2.12
2019-04-20T23:07:03.337Z,2.62
2019-04-20T23:09:32.789Z,2.30
2019-04-20T23:12:08.006Z,2.30
2019-04-20T23:14:32.148Z,2.77
2019-04-20T23:17:02.015Z,2.00
2019-04-20T23:19:39.529Z,2.27
2019-04-20T23:22:04.578Z,2.35
2019-04-20T23:24:31.073Z,1.80
2019-04-20T23:26:59.589Z,2.30
2019-04-20T23:29:34.003Z,2.08
2019-04-20T23:32:03.020Z,2.27
2019-04-20T23:34:31.006Z,2.42
2019-04-20T23:36:58.866Z,2.15
2019-04-20T23:39:32.301Z,2.00
2019-04-20T23:42:02.471Z,2.47
2019-04-20T23:44:35.753Z,2.33
2019-04-20T23:47:13.575Z,2.35
2019-04-20T23:49:58.035Z,2.17
2019-04-20T23:52:32.372Z,2.25
2019-04-20T23:54:48.913Z,2.15
2019-04-20T23:57:09.282Z,2.60
2019-04-20T23:59:41.848Z,2.60
